Airfield :
LOGIN :

Register | Disclaimer

   EN    FR    IT 

 










Legend :    VFR   Marginal VFR   IFR   Intensive IFR   Very Intensive IFR
Visi :
Ceiling :
>= 8 km
>= 3000ft
5 to 8 km
1000 to 3000 ft
1500m to 5 km
500 to 1000 ft
800 to 1500m
200 to 500 ft
< 800m
< 200 ft
Symbols :   Thunderstorms  Fog  Heavy snow  Heavy precipitations  Wind > 20 kt
SIGMETs :     Misc.  Thunderstorms  Icing  Turbulence  Mountain Waves  Volcanic Ashes






- Airport Elevation : 74 ft
- IATA code : MRS


LFML - Marseille / Marignane

CURRENT METAR :
  • 060600Z AUTO 13003KT CAVOK 06/03 Q1023 NOSIG

EXPIRED METARs :
  • 060530Z AUTO 13005KT CAVOK 04/02 Q1023 NOSIG
  • 060500Z AUTO 14005KT CAVOK 05/02 Q1023 NOSIG
  • 060430Z AUTO VRB02KT CAVOK 06/02 Q1023 NOSIG
  • 060400Z AUTO 14005KT CAVOK 05/02 Q1023 NOSIG
  • 060330Z AUTO 13006KT CAVOK 05/02 Q1022 NOSIG

TAF TAF LFML
Valid from the 06 at 03:00 until the 07 at 09:00 UTC


060200Z 0603/0709 VRB03KT CAVOK TX19/0612Z TN07/0603Z
BECMG 0608/0610 18015KT
TEMPO 0612/0616 18015G25KT
BECMG 0616/0618 VRB05KT
ATIS : +33 4 42 31 15 15



MET'MAP, your aeronautical weather chart ! - Copyright ORBIFLY December 2007 - Disclaimer

ORBIFLY MET'MAP TEAM :

Programming & Development : Alexandra Zaïnal
Concept & original design : Baudouin d'Aumeries
Assistance for programming : Marc-Olivier Méhu
Technical & hardware support : Manuel Goepfert

Contact : metmap@orbifly.com




SOURCES & CREDITS :

   NOAA